Terminal Aerodrome Forecast
Issued by NWS Cleveland, OH

Home | Current Version | Previous Version | Graphics & Text | Print | Product List | Glossary On
Versions: 1 2 3 4 5 6 7 8 9 10 11 12 13 14 15 16 17 18
000
FTUS41 KCLE 151000 AAA
TAFERI
TAF AMD
KERI 151003Z 1510/1606 33011KT 6SM -RASN BR OVC006
      TEMPO 1510/1512 1SM -SNPL BR OVC003
     FM151200 34012KT 3SM -SN BR OVC006
      TEMPO 1512/1516 1SM -SN BR OVC003
     FM151600 33012G20KT P6SM VCSH OVC012
     FM152200 30014G22KT P6SM OVC025
     FM160000 28012KT P6SM BKN045
     FM160400 28007KT P6SM SCT250=

USA.gov is the U.S. government's official web portal to all federal, state and local government web resources and services.